Huvudsida
METAR-TAF:

METAR-TAF

Flygplatser :

Point Lay, Alaska, USA

latitud: 69-43N, longitud: 163-00W, höjd: 8 m

Aktuellt väderrapport

Denna rapport gjordes för 27 minuter sedan, klockan 18:56 UTC
Stilla vind
Temperatur 8°C
Fuktighet 76%
Tryck 1022 hPa
Sikt: 16.1 km
Få moln på en höjd av 6000 ft

METAR: PPIZ 141856Z AUTO 00000KT 10SM FEW060 08/04 A3018 RMK AO2 SLP223 T00780044

Tid: 11:23 (19:23 UTC)


TAF: saknas

Aktuella väderrapporter och prognoser från 4000 flygplatser (METAR- och TAF-rapporter).

De tillgängliga stationerna syns som gula och röda prickar på kartan.

För musen över prickarna för att se namnen på stationerna.

Klicka sedan för att få väderrapporter och prognoser.

För att ändra kartan: Klicka på de gröna knapparna med ett svart kors på för att zooma in; den gröna knappen med ett streck på för att zooma ut; eller på de gröna pilarna för angränsande kartor.


METAR-TAF: